sensor_id;sensor_type;location;lat;lon;timestamp;P1;durP1;ratioP1;P2;durP2;ratioP2
51746;SDS011;37825;40.088;18.302;2022-08-18T00:01:14;11.48;;;9.05;;
51746;SDS011;37825;40.088;18.302;2022-08-18T00:03:45;14.20;;;9.43;;
51746;SDS011;37825;40.088;18.302;2022-08-18T00:06:14;14.63;;;9.95;;
51746;SDS011;37825;40.088;18.302;2022-08-18T00:08:42;14.60;;;8.82;;
51746;SDS011;37825;40.088;18.302;2022-08-18T00:11:11;15.48;;;9.30;;
51746;SDS011;37825;40.088;18.302;2022-08-18T00:13:40;11.52;;;8.30;;
51746;SDS011;37825;40.088;18.302;2022-08-18T00:16:08;11.88;;;7.90;;
51746;SDS011;37825;40.088;18.302;2022-08-18T00:18:36;11.55;;;7.28;;
51746;SDS011;37825;40.088;18.302;2022-08-18T00:21:05;10.13;;;8.48;;
51746;SDS011;37825;40.088;18.302;2022-08-18T00:23:33;12.82;;;8.73;;
51746;SDS011;37825;40.088;18.302;2022-08-18T00:26:02;12.85;;;8.82;;
51746;SDS011;37825;40.088;18.302;2022-08-18T00:28:30;14.98;;;10.10;;
51746;SDS011;37825;40.088;18.302;2022-08-18T00:30:58;14.57;;;10.10;;
51746;SDS011;37825;40.088;18.302;2022-08-18T00:33:27;18.27;;;10.45;;
51746;SDS011;37825;40.088;18.302;2022-08-18T00:35:55;18.95;;;10.65;;
51746;SDS011;37825;40.088;18.302;2022-08-18T00:38:24;12.65;;;10.18;;
51746;SDS011;37825;40.088;18.302;2022-08-18T00:40:53;13.95;;;10.98;;
51746;SDS011;37825;40.088;18.302;2022-08-18T00:43:24;14.25;;;10.80;;
51746;SDS011;37825;40.088;18.302;2022-08-18T00:45:57;12.80;;;10.00;;
51746;SDS011;37825;40.088;18.302;2022-08-18T00:48:26;14.00;;;10.75;;
51746;SDS011;37825;40.088;18.302;2022-08-18T00:50:56;12.50;;;10.73;;
51746;SDS011;37825;40.088;18.302;2022-08-18T00:53:29;15.35;;;10.77;;
51746;SDS011;37825;40.088;18.302;2022-08-18T00:56:02;15.63;;;12.45;;
51746;SDS011;37825;40.088;18.302;2022-08-18T00:58:40;16.48;;;13.10;;
51746;SDS011;37825;40.088;18.302;2022-08-18T01:01:10;17.10;;;13.15;;
51746;SDS011;37825;40.088;18.302;2022-08-18T01:03:40;18.80;;;14.57;;
51746;SDS011;37825;40.088;18.302;2022-08-18T01:06:16;16.17;;;12.57;;
51746;SDS011;37825;40.088;18.302;2022-08-18T01:08:47;16.10;;;13.77;;
51746;SDS011;37825;40.088;18.302;2022-08-18T01:11:16;17.08;;;15.27;;
51746;SDS011;37825;40.088;18.302;2022-08-18T01:13:44;15.10;;;12.38;;
51746;SDS011;37825;40.088;18.302;2022-08-18T01:16:13;15.82;;;12.88;;
51746;SDS011;37825;40.088;18.302;2022-08-18T01:19:00;16.77;;;11.85;;
51746;SDS011;37825;40.088;18.302;2022-08-18T01:21:48;14.85;;;12.23;;
51746;SDS011;37825;40.088;18.302;2022-08-18T01:24:28;22.25;;;14.93;;
51746;SDS011;37825;40.088;18.302;2022-08-18T01:27:16;20.52;;;14.88;;
51746;SDS011;37825;40.088;18.302;2022-08-18T01:29:46;17.10;;;14.82;;
51746;SDS011;37825;40.088;18.302;2022-08-18T01:32:19;21.65;;;17.35;;
51746;SDS011;37825;40.088;18.302;2022-08-18T01:34:47;21.75;;;18.27;;
51746;SDS011;37825;40.088;18.302;2022-08-18T01:37:18;20.73;;;18.45;;
51746;SDS011;37825;40.088;18.302;2022-08-18T01:39:46;22.50;;;20.17;;
51746;SDS011;37825;40.088;18.302;2022-08-18T01:42:15;23.40;;;20.98;;
51746;SDS011;37825;40.088;18.302;2022-08-18T01:44:45;22.35;;;20.15;;
51746;SDS011;37825;40.088;18.302;2022-08-18T01:47:14;24.30;;;20.50;;
51746;SDS011;37825;40.088;18.302;2022-08-18T01:49:44;23.23;;;20.75;;
51746;SDS011;37825;40.088;18.302;2022-08-18T01:52:16;25.98;;;22.85;;
51746;SDS011;37825;40.088;18.302;2022-08-18T01:54:48;25.13;;;22.38;;
51746;SDS011;37825;40.088;18.302;2022-08-18T01:57:17;26.75;;;23.95;;
51746;SDS011;37825;40.088;18.302;2022-08-18T01:59:46;27.45;;;22.52;;
51746;SDS011;37825;40.088;18.302;2022-08-18T02:02:17;26.02;;;23.17;;
51746;SDS011;37825;40.088;18.302;2022-08-18T02:04:51;23.38;;;20.92;;
51746;SDS011;37825;40.088;18.302;2022-08-18T02:07:22;21.05;;;18.98;;
51746;SDS011;37825;40.088;18.302;2022-08-18T02:09:51;24.60;;;21.05;;
51746;SDS011;37825;40.088;18.302;2022-08-18T02:12:19;25.35;;;20.25;;
51746;SDS011;37825;40.088;18.302;2022-08-18T02:14:47;20.70;;;18.65;;
51746;SDS011;37825;40.088;18.302;2022-08-18T02:17:17;25.27;;;19.90;;
51746;SDS011;37825;40.088;18.302;2022-08-18T02:19:46;26.33;;;20.80;;
51746;SDS011;37825;40.088;18.302;2022-08-18T02:22:16;24.23;;;21.85;;
51746;SDS011;37825;40.088;18.302;2022-08-18T02:24:45;25.45;;;20.90;;
51746;SDS011;37825;40.088;18.302;2022-08-18T02:27:14;29.83;;;22.52;;
51746;SDS011;37825;40.088;18.302;2022-08-18T02:29:42;31.77;;;23.85;;
51746;SDS011;37825;40.088;18.302;2022-08-18T02:32:10;27.95;;;24.05;;
51746;SDS011;37825;40.088;18.302;2022-08-18T02:34:39;29.92;;;24.25;;
51746;SDS011;37825;40.088;18.302;2022-08-18T02:37:08;28.10;;;25.10;;
51746;SDS011;37825;40.088;18.302;2022-08-18T02:39:40;31.02;;;25.33;;
51746;SDS011;37825;40.088;18.302;2022-08-18T02:42:09;36.13;;;25.35;;
51746;SDS011;37825;40.088;18.302;2022-08-18T02:44:40;28.45;;;25.45;;
51746;SDS011;37825;40.088;18.302;2022-08-18T02:47:09;29.73;;;23.80;;
51746;SDS011;37825;40.088;18.302;2022-08-18T02:49:38;27.98;;;24.05;;
51746;SDS011;37825;40.088;18.302;2022-08-18T02:52:07;28.52;;;25.48;;
51746;SDS011;37825;40.088;18.302;2022-08-18T02:54:36;28.33;;;25.30;;
51746;SDS011;37825;40.088;18.302;2022-08-18T02:57:05;29.48;;;25.40;;
51746;SDS011;37825;40.088;18.302;2022-08-18T02:59:34;27.88;;;24.60;;
51746;SDS011;37825;40.088;18.302;2022-08-18T03:02:03;26.80;;;23.80;;
51746;SDS011;37825;40.088;18.302;2022-08-18T03:04:32;29.23;;;24.88;;
51746;SDS011;37825;40.088;18.302;2022-08-18T03:07:03;31.80;;;23.75;;
51746;SDS011;37825;40.088;18.302;2022-08-18T03:09:32;30.25;;;24.63;;
51746;SDS011;37825;40.088;18.302;2022-08-18T03:12:00;29.63;;;26.17;;
51746;SDS011;37825;40.088;18.302;2022-08-18T03:14:28;37.85;;;27.80;;
51746;SDS011;37825;40.088;18.302;2022-08-18T03:16:58;39.50;;;28.23;;
51746;SDS011;37825;40.088;18.302;2022-08-18T03:19:27;33.55;;;27.45;;
51746;SDS011;37825;40.088;18.302;2022-08-18T03:21:56;37.92;;;28.60;;
51746;SDS011;37825;40.088;18.302;2022-08-18T03:24:27;41.40;;;27.25;;
51746;SDS011;37825;40.088;18.302;2022-08-18T03:26:56;30.33;;;26.88;;
51746;SDS011;37825;40.088;18.302;2022-08-18T03:29:24;28.55;;;25.30;;
51746;SDS011;37825;40.088;18.302;2022-08-18T03:31:58;33.92;;;27.65;;
51746;SDS011;37825;40.088;18.302;2022-08-18T03:34:26;33.92;;;28.33;;
51746;SDS011;37825;40.088;18.302;2022-08-18T03:36:55;33.08;;;25.98;;
51746;SDS011;37825;40.088;18.302;2022-08-18T03:39:23;29.77;;;24.88;;
51746;SDS011;37825;40.088;18.302;2022-08-18T03:41:54;33.47;;;26.00;;
51746;SDS011;37825;40.088;18.302;2022-08-18T03:44:30;30.35;;;27.10;;
51746;SDS011;37825;40.088;18.302;2022-08-18T03:46:59;37.15;;;33.08;;
51746;SDS011;37825;40.088;18.302;2022-08-18T03:49:30;43.50;;;39.10;;
51746;SDS011;37825;40.088;18.302;2022-08-18T03:52:00;36.15;;;28.10;;
51746;SDS011;37825;40.088;18.302;2022-08-18T03:54:28;28.85;;;25.80;;
51746;SDS011;37825;40.088;18.302;2022-08-18T03:56:58;32.40;;;25.60;;
51746;SDS011;37825;40.088;18.302;2022-08-18T03:59:27;29.27;;;26.15;;
51746;SDS011;37825;40.088;18.302;2022-08-18T04:01:58;36.38;;;26.85;;
51746;SDS011;37825;40.088;18.302;2022-08-18T04:04:27;31.10;;;26.35;;
51746;SDS011;37825;40.088;18.302;2022-08-18T04:07:00;31.77;;;26.45;;
51746;SDS011;37825;40.088;18.302;2022-08-18T04:09:31;26.08;;;23.30;;
51746;SDS011;37825;40.088;18.302;2022-08-18T04:12:08;30.30;;;25.35;;
51746;SDS011;37825;40.088;18.302;2022-08-18T04:14:39;28.48;;;25.45;;
51746;SDS011;37825;40.088;18.302;2022-08-18T04:17:08;25.52;;;22.80;;
51746;SDS011;37825;40.088;18.302;2022-08-18T04:19:36;27.00;;;22.77;;
51746;SDS011;37825;40.088;18.302;2022-08-18T04:22:05;28.38;;;22.95;;
51746;SDS011;37825;40.088;18.302;2022-08-18T04:24:33;25.77;;;23.13;;
51746;SDS011;37825;40.088;18.302;2022-08-18T04:27:02;26.13;;;22.55;;
51746;SDS011;37825;40.088;18.302;2022-08-18T04:29:31;32.75;;;21.45;;
51746;SDS011;37825;40.088;18.302;2022-08-18T04:32:00;23.25;;;20.33;;
51746;SDS011;37825;40.088;18.302;2022-08-18T04:34:31;23.70;;;19.70;;
51746;SDS011;37825;40.088;18.302;2022-08-18T04:37:00;25.15;;;19.23;;
51746;SDS011;37825;40.088;18.302;2022-08-18T04:39:29;20.70;;;18.20;;
51746;SDS011;37825;40.088;18.302;2022-08-18T04:41:57;23.55;;;17.77;;
51746;SDS011;37825;40.088;18.302;2022-08-18T04:44:27;27.17;;;17.03;;
51746;SDS011;37825;40.088;18.302;2022-08-18T04:46:56;17.60;;;15.65;;
51746;SDS011;37825;40.088;18.302;2022-08-18T04:49:24;26.10;;;14.68;;
51746;SDS011;37825;40.088;18.302;2022-08-18T04:51:56;16.77;;;12.52;;
51746;SDS011;37825;40.088;18.302;2022-08-18T04:54:43;15.77;;;11.40;;
51746;SDS011;37825;40.088;18.302;2022-08-18T04:57:14;10.20;;;8.52;;
51746;SDS011;37825;40.088;18.302;2022-08-18T04:59:44;13.70;;;8.82;;
51746;SDS011;37825;40.088;18.302;2022-08-18T05:02:13;10.93;;;5.78;;
51746;SDS011;37825;40.088;18.302;2022-08-18T05:04:42;12.18;;;5.90;;
51746;SDS011;37825;40.088;18.302;2022-08-18T05:07:15;13.95;;;5.55;;
51746;SDS011;37825;40.088;18.302;2022-08-18T05:09:45;9.05;;;4.72;;
51746;SDS011;37825;40.088;18.302;2022-08-18T05:12:14;10.38;;;4.25;;
51746;SDS011;37825;40.088;18.302;2022-08-18T05:14:43;8.30;;;5.32;;
51746;SDS011;37825;40.088;18.302;2022-08-18T05:17:13;9.23;;;5.10;;
51746;SDS011;37825;40.088;18.302;2022-08-18T05:19:42;11.52;;;6.18;;
51746;SDS011;37825;40.088;18.302;2022-08-18T05:22:11;8.13;;;5.68;;
51746;SDS011;37825;40.088;18.302;2022-08-18T05:24:44;11.27;;;7.45;;
51746;SDS011;37825;40.088;18.302;2022-08-18T05:27:13;14.60;;;7.25;;
51746;SDS011;37825;40.088;18.302;2022-08-18T05:29:41;9.48;;;6.25;;
51746;SDS011;37825;40.088;18.302;2022-08-18T05:32:09;9.68;;;7.82;;
51746;SDS011;37825;40.088;18.302;2022-08-18T05:34:37;11.80;;;7.63;;
51746;SDS011;37825;40.088;18.302;2022-08-18T05:37:15;48.65;;;14.13;;
51746;SDS011;37825;40.088;18.302;2022-08-18T05:40:02;40.00;;;11.60;;
51746;SDS011;37825;40.088;18.302;2022-08-18T05:42:37;19.23;;;8.05;;
51746;SDS011;37825;40.088;18.302;2022-08-18T05:45:10;13.98;;;7.38;;
51746;SDS011;37825;40.088;18.302;2022-08-18T05:47:39;9.48;;;6.65;;
51746;SDS011;37825;40.088;18.302;2022-08-18T05:50:12;9.27;;;7.00;;
51746;SDS011;37825;40.088;18.302;2022-08-18T05:53:25;9.93;;;6.55;;
51746;SDS011;37825;40.088;18.302;2022-08-18T05:56:16;19.23;;;7.47;;
51746;SDS011;37825;40.088;18.302;2022-08-18T05:58:45;15.75;;;8.07;;
51746;SDS011;37825;40.088;18.302;2022-08-18T06:01:17;8.75;;;7.10;;
51746;SDS011;37825;40.088;18.302;2022-08-18T06:03:49;7.57;;;6.78;;
51746;SDS011;37825;40.088;18.302;2022-08-18T06:06:24;10.18;;;5.93;;
51746;SDS011;37825;40.088;18.302;2022-08-18T06:11:31;9.55;;;6.40;;
51746;SDS011;37825;40.088;18.302;2022-08-18T06:13:59;8.50;;;6.03;;
51746;SDS011;37825;40.088;18.302;2022-08-18T06:22:35;8.57;;;5.13;;
51746;SDS011;37825;40.088;18.302;2022-08-18T06:27:18;8.40;;;4.25;;
51746;SDS011;37825;40.088;18.302;2022-08-18T06:29:53;14.57;;;5.40;;
51746;SDS011;37825;40.088;18.302;2022-08-18T06:37:48;5.00;;;3.28;;
51746;SDS011;37825;40.088;18.302;2022-08-18T06:40:37;7.15;;;3.90;;
51746;SDS011;37825;40.088;18.302;2022-08-18T06:43:08;10.80;;;4.85;;
51746;SDS011;37825;40.088;18.302;2022-08-18T06:45:38;4.30;;;3.25;;
51746;SDS011;37825;40.088;18.302;2022-08-18T06:50:52;8.88;;;4.38;;
51746;SDS011;37825;40.088;18.302;2022-08-18T06:53:39;8.13;;;3.97;;
51746;SDS011;37825;40.088;18.302;2022-08-18T06:56:22;6.97;;;3.65;;
51746;SDS011;37825;40.088;18.302;2022-08-18T06:58:53;6.70;;;3.50;;
51746;SDS011;37825;40.088;18.302;2022-08-18T07:01:22;5.15;;;2.58;;
51746;SDS011;37825;40.088;18.302;2022-08-18T07:03:53;8.52;;;3.70;;
51746;SDS011;37825;40.088;18.302;2022-08-18T07:06:24;7.70;;;3.78;;
51746;SDS011;37825;40.088;18.302;2022-08-18T07:08:55;7.78;;;2.95;;
51746;SDS011;37825;40.088;18.302;2022-08-18T07:11:42;8.15;;;3.58;;
51746;SDS011;37825;40.088;18.302;2022-08-18T07:14:24;9.60;;;2.90;;
51746;SDS011;37825;40.088;18.302;2022-08-18T07:17:07;7.35;;;3.85;;
51746;SDS011;37825;40.088;18.302;2022-08-18T07:19:36;7.70;;;3.13;;
51746;SDS011;37825;40.088;18.302;2022-08-18T07:22:08;4.00;;;2.70;;
51746;SDS011;37825;40.088;18.302;2022-08-18T07:29:41;8.10;;;3.33;;
51746;SDS011;37825;40.088;18.302;2022-08-18T07:32:27;8.18;;;3.20;;
51746;SDS011;37825;40.088;18.302;2022-08-18T07:34:57;7.03;;;3.10;;
51746;SDS011;37825;40.088;18.302;2022-08-18T07:37:47;6.22;;;2.70;;
51746;SDS011;37825;40.088;18.302;2022-08-18T07:40:32;9.18;;;3.35;;
51746;SDS011;37825;40.088;18.302;2022-08-18T07:43:04;6.75;;;3.15;;
51746;SDS011;37825;40.088;18.302;2022-08-18T07:45:36;8.15;;;3.03;;
51746;SDS011;37825;40.088;18.302;2022-08-18T07:48:11;6.40;;;3.13;;
51746;SDS011;37825;40.088;18.302;2022-08-18T07:54:07;11.35;;;2.90;;
51746;SDS011;37825;40.088;18.302;2022-08-18T07:57:04;4.55;;;2.55;;
51746;SDS011;37825;40.088;18.302;2022-08-18T07:59:46;7.18;;;3.22;;
51746;SDS011;37825;40.088;18.302;2022-08-18T08:02:32;3.35;;;2.20;;
51746;SDS011;37825;40.088;18.302;2022-08-18T08:07:54;8.85;;;2.80;;
51746;SDS011;37825;40.088;18.302;2022-08-18T08:12:57;10.10;;;3.08;;
51746;SDS011;37825;40.088;18.302;2022-08-18T08:34:17;6.15;;;2.30;;
51746;SDS011;37825;40.088;18.302;2022-08-18T08:36:51;6.50;;;2.50;;
51746;SDS011;37825;40.088;18.302;2022-08-18T08:42:15;6.68;;;2.65;;
51746;SDS011;37825;40.088;18.302;2022-08-18T08:44:50;7.22;;;1.65;;
51746;SDS011;37825;40.088;18.302;2022-08-18T08:47:42;6.10;;;1.92;;
51746;SDS011;37825;40.088;18.302;2022-08-18T08:50:34;8.05;;;2.05;;
51746;SDS011;37825;40.088;18.302;2022-08-18T08:53:15;10.68;;;2.38;;
51746;SDS011;37825;40.088;18.302;2022-08-18T08:55:49;5.75;;;1.95;;
51746;SDS011;37825;40.088;18.302;2022-08-18T08:58:20;7.65;;;2.25;;
51746;SDS011;37825;40.088;18.302;2022-08-18T09:00:49;4.50;;;1.85;;
51746;SDS011;37825;40.088;18.302;2022-08-18T09:11:08;6.50;;;1.88;;
51746;SDS011;37825;40.088;18.302;2022-08-18T09:13:46;11.52;;;2.63;;
51746;SDS011;37825;40.088;18.302;2022-08-18T09:19:19;8.48;;;1.77;;
51746;SDS011;37825;40.088;18.302;2022-08-18T09:21:58;5.60;;;2.10;;
51746;SDS011;37825;40.088;18.302;2022-08-18T09:24:39;5.65;;;2.00;;
51746;SDS011;37825;40.088;18.302;2022-08-18T09:37:27;4.57;;;1.98;;
51746;SDS011;37825;40.088;18.302;2022-08-18T09:40:05;5.85;;;2.22;;
51746;SDS011;37825;40.088;18.302;2022-08-18T09:43:23;6.22;;;2.08;;
51746;SDS011;37825;40.088;18.302;2022-08-18T09:45:57;5.90;;;2.45;;
51746;SDS011;37825;40.088;18.302;2022-08-18T09:48:31;10.27;;;2.15;;
51746;SDS011;37825;40.088;18.302;2022-08-18T09:56:15;5.85;;;1.55;;
51746;SDS011;37825;40.088;18.302;2022-08-18T10:01:30;6.22;;;2.08;;
51746;SDS011;37825;40.088;18.302;2022-08-18T10:06:44;4.13;;;1.70;;
51746;SDS011;37825;40.088;18.302;2022-08-18T10:11:47;5.20;;;2.30;;
51746;SDS011;37825;40.088;18.302;2022-08-18T10:16:52;6.47;;;1.80;;
51746;SDS011;37825;40.088;18.302;2022-08-18T10:22:39;7.80;;;2.03;;
51746;SDS011;37825;40.088;18.302;2022-08-18T10:25:09;7.50;;;2.00;;
51746;SDS011;37825;40.088;18.302;2022-08-18T10:27:49;5.05;;;1.98;;
51746;SDS011;37825;40.088;18.302;2022-08-18T10:32:56;4.85;;;1.92;;
51746;SDS011;37825;40.088;18.302;2022-08-18T10:38:20;2.95;;;1.33;;
51746;SDS011;37825;40.088;18.302;2022-08-18T10:41:01;5.57;;;2.05;;
51746;SDS011;37825;40.088;18.302;2022-08-18T10:43:45;6.05;;;1.77;;
51746;SDS011;37825;40.088;18.302;2022-08-18T10:46:15;4.43;;;1.60;;
51746;SDS011;37825;40.088;18.302;2022-08-18T10:54:24;8.10;;;1.80;;
51746;SDS011;37825;40.088;18.302;2022-08-18T10:56:59;3.80;;;1.63;;
51746;SDS011;37825;40.088;18.302;2022-08-18T10:59:46;5.63;;;1.73;;
51746;SDS011;37825;40.088;18.302;2022-08-18T11:05:09;8.35;;;1.83;;
51746;SDS011;37825;40.088;18.302;2022-08-18T11:07:38;3.33;;;1.80;;
51746;SDS011;37825;40.088;18.302;2022-08-18T11:10:20;9.15;;;1.75;;
51746;SDS011;37825;40.088;18.302;2022-08-18T11:13:16;3.08;;;1.75;;
51746;SDS011;37825;40.088;18.302;2022-08-18T11:18:35;5.22;;;2.10;;
51746;SDS011;37825;40.088;18.302;2022-08-18T11:24:05;5.57;;;1.80;;
51746;SDS011;37825;40.088;18.302;2022-08-18T11:26:36;4.15;;;2.22;;
51746;SDS011;37825;40.088;18.302;2022-08-18T11:31:46;5.88;;;2.05;;
51746;SDS011;37825;40.088;18.302;2022-08-18T11:34:16;4.07;;;1.75;;
51746;SDS011;37825;40.088;18.302;2022-08-18T11:36:53;6.00;;;1.85;;
51746;SDS011;37825;40.088;18.302;2022-08-18T11:39:23;8.30;;;2.78;;
51746;SDS011;37825;40.088;18.302;2022-08-18T11:41:58;7.05;;;2.08;;
51746;SDS011;37825;40.088;18.302;2022-08-18T11:44:29;5.07;;;2.47;;
51746;SDS011;37825;40.088;18.302;2022-08-18T11:47:16;5.72;;;2.10;;
51746;SDS011;37825;40.088;18.302;2022-08-18T11:49:53;4.00;;;2.25;;
51746;SDS011;37825;40.088;18.302;2022-08-18T11:52:27;5.60;;;1.92;;
51746;SDS011;37825;40.088;18.302;2022-08-18T11:55:00;4.28;;;1.63;;
51746;SDS011;37825;40.088;18.302;2022-08-18T11:59:57;4.90;;;2.10;;
51746;SDS011;37825;40.088;18.302;2022-08-18T12:02:25;5.18;;;2.15;;
51746;SDS011;37825;40.088;18.302;2022-08-18T12:04:55;10.57;;;1.80;;
51746;SDS011;37825;40.088;18.302;2022-08-18T12:07:28;3.00;;;1.58;;
51746;SDS011;37825;40.088;18.302;2022-08-18T12:12:51;2.75;;;1.73;;
51746;SDS011;37825;40.088;18.302;2022-08-18T12:15:25;3.20;;;1.33;;
51746;SDS011;37825;40.088;18.302;2022-08-18T12:17:55;4.97;;;1.75;;
51746;SDS011;37825;40.088;18.302;2022-08-18T12:20:23;3.58;;;1.55;;
51746;SDS011;37825;40.088;18.302;2022-08-18T12:22:51;7.27;;;2.00;;
51746;SDS011;37825;40.088;18.302;2022-08-18T12:25:22;8.50;;;2.08;;
51746;SDS011;37825;40.088;18.302;2022-08-18T12:27:52;5.60;;;1.55;;
51746;SDS011;37825;40.088;18.302;2022-08-18T12:30:20;3.63;;;1.88;;
51746;SDS011;37825;40.088;18.302;2022-08-18T12:32:48;5.28;;;1.95;;
51746;SDS011;37825;40.088;18.302;2022-08-18T12:35:17;4.55;;;1.80;;
51746;SDS011;37825;40.088;18.302;2022-08-18T12:37:45;5.27;;;1.77;;
51746;SDS011;37825;40.088;18.302;2022-08-18T12:40:30;5.00;;;1.73;;
51746;SDS011;37825;40.088;18.302;2022-08-18T12:45:27;8.73;;;1.60;;
51746;SDS011;37825;40.088;18.302;2022-08-18T12:47:57;6.93;;;1.70;;
51746;SDS011;37825;40.088;18.302;2022-08-18T12:50:29;2.80;;;1.30;;
51746;SDS011;37825;40.088;18.302;2022-08-18T12:52:58;4.53;;;1.65;;
51746;SDS011;37825;40.088;18.302;2022-08-18T12:55:27;4.73;;;1.47;;
51746;SDS011;37825;40.088;18.302;2022-08-18T12:57:57;5.70;;;1.80;;
51746;SDS011;37825;40.088;18.302;2022-08-18T13:00:26;9.90;;;1.50;;
51746;SDS011;37825;40.088;18.302;2022-08-18T13:02:55;4.07;;;1.60;;
51746;SDS011;37825;40.088;18.302;2022-08-18T13:05:24;6.18;;;1.30;;
51746;SDS011;37825;40.088;18.302;2022-08-18T13:07:53;4.88;;;1.67;;
51746;SDS011;37825;40.088;18.302;2022-08-18T13:10:22;9.18;;;2.30;;
51746;SDS011;37825;40.088;18.302;2022-08-18T13:12:51;5.60;;;2.45;;
51746;SDS011;37825;40.088;18.302;2022-08-18T13:15:19;7.80;;;2.40;;
51746;SDS011;37825;40.088;18.302;2022-08-18T13:17:48;6.93;;;1.98;;
51746;SDS011;37825;40.088;18.302;2022-08-18T13:20:19;6.05;;;1.98;;
51746;SDS011;37825;40.088;18.302;2022-08-18T13:22:47;6.40;;;2.22;;
51746;SDS011;37825;40.088;18.302;2022-08-18T13:25:16;9.95;;;2.38;;
51746;SDS011;37825;40.088;18.302;2022-08-18T13:30:14;7.45;;;2.15;;
51746;SDS011;37825;40.088;18.302;2022-08-18T13:32:43;10.60;;;2.08;;
51746;SDS011;37825;40.088;18.302;2022-08-18T13:35:11;8.90;;;2.42;;
51746;SDS011;37825;40.088;18.302;2022-08-18T13:37:40;4.80;;;2.13;;
51746;SDS011;37825;40.088;18.302;2022-08-18T13:40:09;8.00;;;2.75;;
51746;SDS011;37825;40.088;18.302;2022-08-18T13:42:43;6.75;;;2.53;;
51746;SDS011;37825;40.088;18.302;2022-08-18T13:45:17;5.38;;;1.90;;
51746;SDS011;37825;40.088;18.302;2022-08-18T13:47:47;5.47;;;2.33;;
51746;SDS011;37825;40.088;18.302;2022-08-18T13:50:16;5.70;;;2.47;;
51746;SDS011;37825;40.088;18.302;2022-08-18T13:52:44;8.50;;;2.33;;
51746;SDS011;37825;40.088;18.302;2022-08-18T13:55:14;8.30;;;2.38;;
51746;SDS011;37825;40.088;18.302;2022-08-18T13:57:44;6.32;;;2.05;;
51746;SDS011;37825;40.088;18.302;2022-08-18T14:00:17;6.47;;;1.83;;
51746;SDS011;37825;40.088;18.302;2022-08-18T14:02:48;6.28;;;2.45;;
51746;SDS011;37825;40.088;18.302;2022-08-18T14:05:19;5.75;;;1.95;;
51746;SDS011;37825;40.088;18.302;2022-08-18T14:10:15;10.45;;;2.30;;
51746;SDS011;37825;40.088;18.302;2022-08-18T14:12:44;8.53;;;2.83;;
51746;SDS011;37825;40.088;18.302;2022-08-18T14:15:13;6.90;;;2.67;;
51746;SDS011;37825;40.088;18.302;2022-08-18T14:17:42;6.90;;;2.40;;
51746;SDS011;37825;40.088;18.302;2022-08-18T14:20:10;12.13;;;2.70;;
51746;SDS011;37825;40.088;18.302;2022-08-18T14:22:58;8.57;;;1.70;;
51746;SDS011;37825;40.088;18.302;2022-08-18T14:25:45;6.90;;;1.65;;
51746;SDS011;37825;40.088;18.302;2022-08-18T14:28:33;5.20;;;2.20;;
51746;SDS011;37825;40.088;18.302;2022-08-18T14:31:01;6.50;;;1.85;;
51746;SDS011;37825;40.088;18.302;2022-08-18T14:33:30;12.50;;;2.83;;
51746;SDS011;37825;40.088;18.302;2022-08-18T14:35:59;8.82;;;2.75;;
51746;SDS011;37825;40.088;18.302;2022-08-18T14:38:29;9.88;;;2.15;;
51746;SDS011;37825;40.088;18.302;2022-08-18T14:40:58;8.02;;;2.17;;
51746;SDS011;37825;40.088;18.302;2022-08-18T14:43:27;8.27;;;2.30;;
51746;SDS011;37825;40.088;18.302;2022-08-18T14:45:55;6.43;;;2.05;;
51746;SDS011;37825;40.088;18.302;2022-08-18T14:48:24;5.93;;;2.22;;
51746;SDS011;37825;40.088;18.302;2022-08-18T14:50:54;5.25;;;2.00;;
51746;SDS011;37825;40.088;18.302;2022-08-18T14:53:27;8.02;;;2.13;;
51746;SDS011;37825;40.088;18.302;2022-08-18T14:55:56;10.27;;;2.55;;
51746;SDS011;37825;40.088;18.302;2022-08-18T14:58:26;7.95;;;2.15;;
51746;SDS011;37825;40.088;18.302;2022-08-18T15:03:23;5.97;;;2.22;;
51746;SDS011;37825;40.088;18.302;2022-08-18T15:05:52;5.13;;;2.13;;
51746;SDS011;37825;40.088;18.302;2022-08-18T15:08:20;4.25;;;1.55;;
51746;SDS011;37825;40.088;18.302;2022-08-18T15:10:49;9.27;;;1.88;;
51746;SDS011;37825;40.088;18.302;2022-08-18T15:13:17;6.50;;;1.88;;
51746;SDS011;37825;40.088;18.302;2022-08-18T15:15:46;6.68;;;1.98;;
51746;SDS011;37825;40.088;18.302;2022-08-18T15:18:14;10.70;;;2.17;;
51746;SDS011;37825;40.088;18.302;2022-08-18T15:20:45;9.65;;;2.70;;
51746;SDS011;37825;40.088;18.302;2022-08-18T15:23:32;5.05;;;2.20;;
51746;SDS011;37825;40.088;18.302;2022-08-18T15:26:23;7.13;;;1.77;;
51746;SDS011;37825;40.088;18.302;2022-08-18T15:28:52;7.60;;;1.92;;
51746;SDS011;37825;40.088;18.302;2022-08-18T15:31:21;10.77;;;2.85;;
51746;SDS011;37825;40.088;18.302;2022-08-18T15:34:09;11.57;;;2.22;;
51746;SDS011;37825;40.088;18.302;2022-08-18T15:36:38;6.05;;;1.92;;
51746;SDS011;37825;40.088;18.302;2022-08-18T15:39:07;6.65;;;2.28;;
51746;SDS011;37825;40.088;18.302;2022-08-18T15:41:38;6.05;;;2.42;;
51746;SDS011;37825;40.088;18.302;2022-08-18T15:44:06;5.10;;;1.85;;
51746;SDS011;37825;40.088;18.302;2022-08-18T15:46:36;8.75;;;2.53;;
51746;SDS011;37825;40.088;18.302;2022-08-18T15:51:37;9.35;;;2.78;;
51746;SDS011;37825;40.088;18.302;2022-08-18T15:54:07;10.60;;;2.05;;
51746;SDS011;37825;40.088;18.302;2022-08-18T15:56:36;12.68;;;2.40;;
51746;SDS011;37825;40.088;18.302;2022-08-18T15:59:05;5.13;;;1.92;;
51746;SDS011;37825;40.088;18.302;2022-08-18T16:01:37;10.60;;;2.58;;
51746;SDS011;37825;40.088;18.302;2022-08-18T16:04:08;7.65;;;2.47;;
51746;SDS011;37825;40.088;18.302;2022-08-18T16:06:36;10.63;;;2.88;;
51746;SDS011;37825;40.088;18.302;2022-08-18T16:09:07;9.10;;;2.75;;
51746;SDS011;37825;40.088;18.302;2022-08-18T16:11:39;5.95;;;2.15;;
51746;SDS011;37825;40.088;18.302;2022-08-18T16:14:07;8.15;;;3.03;;
51746;SDS011;37825;40.088;18.302;2022-08-18T16:16:36;8.75;;;2.45;;
51746;SDS011;37825;40.088;18.302;2022-08-18T16:19:04;10.75;;;2.70;;
51746;SDS011;37825;40.088;18.302;2022-08-18T16:21:33;9.88;;;2.90;;
51746;SDS011;37825;40.088;18.302;2022-08-18T16:24:06;13.02;;;2.78;;
51746;SDS011;37825;40.088;18.302;2022-08-18T16:26:34;8.93;;;2.35;;
51746;SDS011;37825;40.088;18.302;2022-08-18T16:29:02;9.18;;;3.17;;
51746;SDS011;37825;40.088;18.302;2022-08-18T16:31:32;7.57;;;2.30;;
51746;SDS011;37825;40.088;18.302;2022-08-18T16:34:00;10.82;;;2.53;;
51746;SDS011;37825;40.088;18.302;2022-08-18T16:36:28;7.88;;;2.83;;
51746;SDS011;37825;40.088;18.302;2022-08-18T16:38:57;10.73;;;2.58;;
51746;SDS011;37825;40.088;18.302;2022-08-18T16:41:25;9.82;;;2.60;;
51746;SDS011;37825;40.088;18.302;2022-08-18T16:43:54;13.32;;;3.25;;
51746;SDS011;37825;40.088;18.302;2022-08-18T16:46:22;7.28;;;2.55;;
51746;SDS011;37825;40.088;18.302;2022-08-18T16:48:53;10.85;;;2.60;;
51746;SDS011;37825;40.088;18.302;2022-08-18T16:51:24;6.03;;;2.03;;
51746;SDS011;37825;40.088;18.302;2022-08-18T16:56:23;13.55;;;2.90;;
51746;SDS011;37825;40.088;18.302;2022-08-18T16:58:51;8.00;;;2.90;;
51746;SDS011;37825;40.088;18.302;2022-08-18T17:01:39;7.10;;;2.63;;
51746;SDS011;37825;40.088;18.302;2022-08-18T17:04:27;14.20;;;3.35;;
51746;SDS011;37825;40.088;18.302;2022-08-18T17:06:56;7.97;;;2.90;;
51746;SDS011;37825;40.088;18.302;2022-08-18T17:09:24;8.35;;;2.72;;